Time;durP1;ratioP1;P1;durP2;ratioP2;P2;SDS_P1;SDS_P2;PMS_P1;PMS_P2;Temp;Humidity;BMP_temperature;BMP_pressure;BME280_temperature;BME280_humidity;BME280_pressure;Samples;Min_cycle;Max_cycle;Signal;HPM_P1;HPM_P2
2021/06/30 00:00:15;;;;;;;;;14.50;13.25;;;;;17.98;62.77;100917.53;4864844;29;46087;-49
2021/06/30 00:02:40;;;;;;;;;13.50;12.75;;;;;17.97;63.04;100915.78;4869378;29;45301;-52
2021/06/30 00:05:07;;;;;;;;;12.00;9.75;;;;;17.96;63.30;100912.28;4866762;29;45186;-51
2021/06/30 00:07:33;;;;;;;;;14.25;12.50;;;;;17.95;63.15;100914.97;4868136;29;45327;-52
2021/06/30 00:10:00;;;;;;;;;12.00;10.25;;;;;17.91;63.44;100919.56;4867750;29;46055;-51
2021/06/30 00:12:25;;;;;;;;;9.75;9.75;;;;;17.91;63.55;100918.66;4866557;29;45336;-49
2021/06/30 00:14:51;;;;;;;;;10.25;8.75;;;;;17.90;63.65;100915.16;4867986;29;45454;-52
2021/06/30 00:17:18;;;;;;;;;13.50;12.00;;;;;17.89;63.69;100917.88;4868128;29;45385;-51
2021/06/30 00:19:44;;;;;;;;;14.50;12.25;;;;;17.89;63.79;100916.09;4867681;29;45504;-52
2021/06/30 00:22:09;;;;;;;;;11.50;10.00;;;;;17.89;63.78;100910.78;4866457;29;45788;-50
2021/06/30 00:24:34;;;;;;;;;13.50;10.75;;;;;17.87;63.64;100910.84;4868031;29;45301;-54
2021/06/30 00:27:00;;;;;;;;;9.75;8.00;;;;;17.88;63.63;100909.03;4866570;29;45520;-50
2021/06/30 00:29:25;;;;;;;;;9.50;9.25;;;;;17.90;63.90;100912.50;4866499;29;46168;-53
2021/06/30 00:31:50;;;;;;;;;13.25;10.25;;;;;17.88;63.84;100903.72;4867863;29;45321;-52
2021/06/30 00:34:16;;;;;;;;;11.25;10.50;;;;;17.87;64.10;100909.97;4867802;29;45153;-52
2021/06/30 00:36:46;;;;;;;;;10.25;8.50;;;;;17.87;63.98;100909.97;4867635;29;45314;-54
2021/06/30 00:39:11;;;;;;;;;10.25;9.50;;;;;17.85;63.99;100910.03;4866330;29;47455;-52
2021/06/30 00:41:37;;;;;;;;;11.75;10.75;;;;;17.85;63.81;100906.53;4867602;29;45486;-54
2021/06/30 00:44:02;;;;;;;;;12.25;10.50;;;;;17.86;63.96;100914.41;4867802;29;45502;-54
2021/06/30 00:46:32;;;;;;;;;9.50;7.75;;;;;17.86;64.09;100902.91;4867898;29;45535;-52
2021/06/30 00:48:58;;;;;;;;;9.50;9.00;;;;;17.86;63.96;100902.91;4866334;29;48497;-54
2021/06/30 00:51:26;;;;;;;;;10.25;9.50;;;;;17.87;64.05;100909.97;4867166;29;45398;-53
2021/06/30 00:53:52;;;;;;;;;15.75;12.25;;;;;17.86;63.86;100902.91;4867379;29;45376;-51
2021/06/30 00:56:24;;;;;;;;;13.75;11.00;;;;;17.88;63.59;100906.38;4867567;29;45380;-49
2021/06/30 00:58:58;;;;;;;;;11.75;9.25;;;;;17.89;63.89;100902.78;4867212;29;46289;-49
2021/06/30 01:01:24;;;;;;;;;12.50;9.25;;;;;17.91;64.25;100900.06;4867230;29;45460;-53
2021/06/30 01:03:51;;;;;;;;;11.25;10.25;;;;;17.92;64.05;100901.78;4872904;29;45407;-52
2021/06/30 01:06:17;;;;;;;;;7.00;7.00;;;;;17.93;64.27;100903.53;4867221;29;45465;-49
2021/06/30 01:08:44;;;;;;;;;8.75;6.50;;;;;17.92;64.13;100904.47;4867371;29;46257;-52
2021/06/30 01:11:10;;;;;;;;;7.75;7.00;;;;;17.93;64.12;100903.53;4867418;29;45293;-53
2021/06/30 01:13:37;;;;;;;;;6.75;6.25;;;;;17.83;64.80;100887.09;4867314;29;45255;-53
2021/06/30 01:16:03;;;;;;;;;8.00;6.00;;;;;17.90;64.33;100904.53;4867153;29;45371;-51
2021/06/30 01:18:31;;;;;;;;;8.25;5.75;;;;;17.89;64.35;100907.25;4867119;29;46261;-52
2021/06/30 01:20:58;;;;;;;;;8.00;5.25;;;;;17.89;64.33;100904.59;4881407;29;45270;-51
2021/06/30 01:23:24;;;;;;;;;4.50;4.50;;;;;17.88;64.47;100906.38;4866828;29;45473;-52
2021/06/30 01:25:51;;;;;;;;;5.00;4.25;;;;;17.85;64.63;100907.38;4865843;29;45440;-51
2021/06/30 01:28:17;;;;;;;;;5.75;5.25;;;;;17.81;64.66;100896.94;4867160;29;46301;-51
2021/06/30 01:30:44;;;;;;;;;7.50;5.50;;;;;17.77;65.00;100898.84;4866989;29;45412;-51
2021/06/30 01:33:10;;;;;;;;;7.25;6.00;;;;;17.76;65.04;100897.13;4867267;29;45268;-52
2021/06/30 01:35:36;;;;;;;;;7.00;6.00;;;;;17.73;64.97;100897.25;4866991;29;45275;-51
2021/06/30 01:38:02;;;;;;;;;3.50;2.00;;;;;17.70;65.02;100898.25;4866821;29;46103;-52
2021/06/30 01:40:28;;;;;;;;;8.75;6.25;;;;;17.66;64.84;100898.41;4867115;29;45387;-51
2021/06/30 01:42:55;;;;;;;;;6.00;6.00;;;;;17.65;65.27;100896.72;4866971;29;45332;-52
2021/06/30 01:45:21;;;;;;;;;7.25;5.50;;;;;17.65;65.08;100899.38;4866911;29;45222;-49
2021/06/30 01:47:47;;;;;;;;;6.00;6.00;;;;;17.57;65.23;100885.53;4866870;29;45193;-52
2021/06/30 01:50:13;;;;;;;;;7.00;7.00;;;;;17.64;65.33;100901.16;4866694;29;45380;-51
2021/06/30 01:52:39;;;;;;;;;10.25;8.50;;;;;17.63;65.16;100904.72;4865505;29;45438;-51
2021/06/30 01:55:06;;;;;;;;;10.50;7.00;;;;;17.65;65.32;100902.03;4866893;29;45494;-51
2021/06/30 01:57:32;;;;;;;;;5.50;4.25;;;;;17.63;65.43;100896.75;4866724;29;47567;-52
2021/06/30 01:59:57;;;;;;;;;7.50;6.50;;;;;17.66;65.23;100909.06;4866641;29;45385;-51
2021/06/30 02:02:28;;;;;;;;;7.75;6.75;;;;;17.68;65.24;100905.44;4871224;29;45560;-53
2021/06/30 02:05:01;;;;;;;;;7.25;7.25;;;;;17.66;65.49;100906.41;4866918;29;45361;-53
2021/06/30 02:07:26;;;;;;;;;7.00;7.00;;;;;17.68;65.49;100916.06;4866344;29;45229;-53
2021/06/30 02:09:52;;;;;;;;;7.00;7.00;;;;;17.69;65.31;100912.44;4865035;29;45235;-48
2021/06/30 02:12:17;;;;;;;;;5.25;5.00;;;;;17.68;65.47;100904.56;4865490;29;45209;-51
2021/06/30 02:14:43;;;;;;;;;7.50;5.50;;;;;17.67;65.73;100906.34;4865358;29;45352;-51
2021/06/30 02:17:08;;;;;;;;;9.00;5.50;;;;;17.66;65.61;100906.41;4866587;29;45430;-50
2021/06/30 02:19:33;;;;;;;;;7.50;7.50;;;;;17.64;65.75;100900.28;4866322;29;45348;-52
2021/06/30 02:21:59;;;;;;;;;6.00;6.00;;;;;17.64;65.59;100908.28;4865056;29;45411;-53
2021/06/30 02:24:24;;;;;;;;;10.75;9.25;;;;;17.64;65.68;100910.94;4866330;29;45272;-53
2021/06/30 02:26:49;;;;;;;;;8.25;7.50;;;;;17.62;65.87;100904.81;4865789;29;45410;-50
2021/06/30 02:29:15;;;;;;;;;5.50;5.25;;;;;17.63;65.64;100917.16;4866264;29;45397;-51
2021/06/30 02:31:40;;;;;;;;;10.50;9.25;;;;;17.62;65.90;100912.78;4866672;29;45248;-51
2021/06/30 02:34:05;;;;;;;;;7.00;5.75;;;;;17.61;65.90;100916.34;4866031;29;45476;-51
2021/06/30 02:36:31;;;;;;;;;9.75;8.00;;;;;17.59;66.08;100910.25;4864679;29;48571;-52
2021/06/30 02:38:57;;;;;;;;;10.00;7.25;;;;;17.59;65.96;100915.56;4866172;29;45307;-56
2021/06/30 02:41:24;;;;;;;;;11.25;9.00;;;;;17.57;65.91;100917.41;4866414;29;45227;-52
2021/06/30 02:43:49;;;;;;;;;11.00;9.25;;;;;17.54;65.97;100919.25;4865782;29;45210;-52
2021/06/30 02:46:15;;;;;;;;;10.25;7.75;;;;;17.55;66.07;100918.34;4866033;29;46228;-56
2021/06/30 02:48:40;;;;;;;;;7.25;5.00;;;;;17.53;65.89;100917.56;4866053;29;45181;-51
2021/06/30 02:51:07;;;;;;;;;7.75;7.75;;;;;17.53;66.06;100920.22;4866251;29;45801;-52
2021/06/30 02:53:32;;;;;;;;;13.75;9.25;;;;;17.52;65.78;100915.81;4864425;29;45238;-52
2021/06/30 02:56:01;;;;;;;;;10.25;7.75;;;;;17.54;65.96;100932.53;4865965;29;45233;-52
2021/06/30 02:58:26;;;;;;;;;9.75;6.00;;;;;17.54;65.82;100921.91;4865787;29;45341;-52
2021/06/30 03:00:52;;;;;;;;;7.00;6.50;;;;;17.53;65.88;100914.91;4864552;29;45374;-49
2021/06/30 03:03:17;;;;;;;;;5.50;5.50;;;;;17.55;66.01;100923.66;4871252;29;45317;-53
2021/06/30 03:05:42;;;;;;;;;9.25;7.25;;;;;17.55;65.78;100925.44;4865992;29;45595;-52
2021/06/30 03:08:08;;;;;;;;;11.50;8.75;;;;;17.54;66.15;100921.91;4865545;29;45412;-52
2021/06/30 03:10:35;;;;;;;;;9.25;9.00;;;;;17.54;66.05;100927.22;4864690;29;45372;-51
2021/06/30 03:13:00;;;;;;;;;10.50;10.25;;;;;17.45;66.10;100910.81;4865451;29;45318;-54
2021/06/30 03:15:25;;;;;;;;;10.00;10.00;;;;;17.49;66.09;100921.22;4865675;29;46113;-50
2021/06/30 03:17:51;;;;;;;;;9.75;6.25;;;;;17.49;65.96;100925.69;4865578;29;45251;-53
2021/06/30 03:20:16;;;;;;;;;14.25;10.75;;;;;17.54;65.84;100942.31;4865838;29;45158;-53
2021/06/30 03:22:42;;;;;;;;;13.50;12.00;;;;;17.56;65.78;100935.16;4864158;29;45313;-52
2021/06/30 03:25:10;;;;;;;;;15.75;13.00;;;;;17.57;65.75;100934.19;4864299;29;47448;-51
2021/06/30 03:27:37;;;;;;;;;12.00;11.75;;;;;17.58;65.80;100940.41;4865324;29;45337;-53
2021/06/30 03:30:05;;;;;;;;;13.75;11.25;;;;;17.58;65.56;100930.63;4865617;29;45342;-52
2021/06/30 03:32:30;;;;;;;;;12.75;10.50;;;;;17.58;65.50;100935.09;4863983;29;45256;-53
2021/06/30 03:34:56;;;;;;;;;12.00;12.00;;;;;17.55;65.41;100926.31;4865479;29;46284;-52
2021/06/30 03:37:21;;;;;;;;;11.00;10.25;;;;;17.58;65.46;100929.78;4865237;29;45226;-50
2021/06/30 03:39:46;;;;;;;;;14.00;11.25;;;;;17.60;65.39;100936.75;4867208;29;45314;-51
2021/06/30 03:42:12;;;;;;;;;10.75;9.75;;;;;17.58;65.33;100935.94;4868646;29;45269;-52
2021/06/30 03:44:37;;;;;;;;;13.75;13.25;;;;;17.61;65.19;100941.16;4868671;29;46266;-49
2021/06/30 03:47:02;;;;;;;;;15.25;11.75;;;;;17.60;65.25;100947.38;4867259;29;45175;-51
2021/06/30 03:49:28;;;;;;;;;13.25;12.00;;;;;17.58;65.05;100938.59;4869013;29;45420;-52
2021/06/30 03:51:53;;;;;;;;;11.75;11.75;;;;;17.63;65.02;100938.41;4868171;29;45340;-52
2021/06/30 03:54:20;;;;;;;;;12.00;10.75;;;;;17.64;65.03;100945.47;4868541;29;46317;-48
2021/06/30 03:56:45;;;;;;;;;12.75;9.50;;;;;17.67;64.97;100943.56;4868250;29;45297;-51
2021/06/30 03:59:11;;;;;;;;;12.50;12.50;;;;;17.65;64.83;100931.25;4868499;29;45399;-50
2021/06/30 04:01:37;;;;;;;;;13.00;12.00;;;;;17.71;64.85;100944.31;4868216;29;45342;-52
2021/06/30 04:04:06;;;;;;;;;15.25;12.75;;;;;17.74;64.70;100949.47;4873585;29;45310;-50
2021/06/30 04:06:31;;;;;;;;;14.00;11.25;;;;;17.74;64.80;100949.47;4868100;29;45361;-51
2021/06/30 04:08:56;;;;;;;;;11.25;10.75;;;;;17.76;64.69;100950.28;4868408;29;45293;-52
2021/06/30 04:11:22;;;;;;;;;15.00;14.00;;;;;17.76;64.61;100944.97;4868267;29;45218;-49
2021/06/30 04:13:47;;;;;;;;;13.75;11.00;;;;;17.77;64.51;100941.38;4868055;29;45325;-49
2021/06/30 04:16:13;;;;;;;;;15.00;14.00;;;;;17.74;64.52;100930.88;4868020;29;45252;-52
2021/06/30 04:18:38;;;;;;;;;18.75;14.00;;;;;17.81;64.48;100937.69;4868379;29;45330;-48
2021/06/30 04:21:09;;;;;;;;;17.00;14.50;;;;;17.81;64.55;100940.34;4866775;29;45350;-50
2021/06/30 04:23:34;;;;;;;;;14.75;10.50;;;;;17.84;64.42;100947.31;4868038;29;46996;-52
2021/06/30 04:26:00;;;;;;;;;18.00;15.00;;;;;17.85;64.51;100944.59;4867948;29;45245;-50
2021/06/30 04:28:25;;;;;;;;;21.25;16.50;;;;;17.87;64.26;100945.41;4866921;29;45373;-52
2021/06/30 04:30:51;;;;;;;;;20.25;13.25;;;;;17.88;64.16;100948.91;4867952;29;45342;-52
2021/06/30 04:33:16;;;;;;;;;17.75;16.50;;;;;17.90;64.33;100952.38;4867873;29;45221;-52
2021/06/30 04:35:42;;;;;;;;;16.25;16.00;;;;;17.91;64.21;100948.78;4867831;29;45224;-49
2021/06/30 04:38:07;;;;;;;;;16.50;12.75;;;;;17.93;64.47;100949.56;4868059;29;45300;-48
2021/06/30 04:40:32;;;;;;;;;16.50;13.50;;;;;17.93;64.29;100949.56;4867751;29;45542;-52
2021/06/30 04:42:58;;;;;;;;;27.00;22.00;;;;;17.95;64.30;100953.09;4866691;29;47176;-51
2021/06/30 04:45:23;;;;;;;;;18.00;17.25;;;;;17.97;64.41;100958.31;4867706;29;45356;-53
2021/06/30 04:47:49;;;;;;;;;13.75;12.50;;;;;17.97;63.83;100953.88;4866708;29;45310;-52
2021/06/30 04:50:14;;;;;;;;;16.25;11.00;;;;;17.95;64.05;100950.41;4867224;29;45544;-52
2021/06/30 04:52:40;;;;;;;;;12.00;12.00;;;;;17.98;63.89;100952.09;4867624;29;46450;-50
2021/06/30 04:55:06;;;;;;;;;14.75;14.75;;;;;17.99;64.14;100954.69;4867569;29;45351;-52
2021/06/30 04:57:33;;;;;;;;;12.50;12.50;;;;;17.97;63.78;100953.88;4867728;29;45301;-50
2021/06/30 04:59:58;;;;;;;;;14.50;13.00;;;;;17.97;64.20;100951.19;4867421;29;46836;-51
2021/06/30 05:02:24;;;;;;;;;11.25;11.00;;;;;17.98;64.10;100960.91;4870915;29;47332;-52
2021/06/30 05:04:49;;;;;;;;;12.25;11.75;;;;;17.99;63.92;100959.13;4866844;29;45460;-51
2021/06/30 05:07:14;;;;;;;;;15.50;13.75;;;;;17.99;63.88;100961.81;4867453;29;45268;-52
2021/06/30 05:09:40;;;;;;;;;12.75;12.75;;;;;17.99;63.97;100960.00;4867384;29;45238;-53
2021/06/30 05:12:05;;;;;;;;;14.50;10.50;;;;;17.96;64.24;100957.47;4867484;29;45619;-52
2021/06/30 05:14:31;;;;;;;;;11.50;8.00;;;;;17.99;63.88;100964.47;4867236;29;45153;-51
2021/06/30 05:16:56;;;;;;;;;12.00;10.75;;;;;17.98;63.90;100963.56;4866258;29;45359;-53
2021/06/30 05:19:22;;;;;;;;;13.00;12.75;;;;;17.97;63.86;100964.50;4867204;29;45497;-52
2021/06/30 05:21:48;;;;;;;;;12.75;11.00;;;;;17.98;63.85;100965.38;4867219;29;46026;-53
2021/06/30 05:24:13;;;;;;;;;8.25;7.00;;;;;17.95;64.14;100965.50;4867287;29;45320;-50
2021/06/30 05:26:38;;;;;;;;;9.25;8.00;;;;;17.96;63.81;100973.44;4867463;29;45323;-53
2021/06/30 05:29:04;;;;;;;;;10.75;8.50;;;;;17.94;63.84;100969.97;4867121;29;45519;-52
2021/06/30 05:31:29;;;;;;;;;12.00;9.50;;;;;17.96;64.16;100973.44;4867277;29;45306;-52
2021/06/30 05:33:55;;;;;;;;;11.75;10.75;;;;;17.95;63.83;100977.00;4866923;29;45317;-51
2021/06/30 05:36:20;;;;;;;;;8.50;7.25;;;;;17.98;63.78;100973.34;4865888;29;45417;-53
2021/06/30 05:38:45;;;;;;;;;8.00;6.50;;;;;17.98;63.94;100974.22;4866995;29;45296;-51
2021/06/30 05:41:11;;;;;;;;;8.25;8.00;;;;;17.98;64.03;100978.69;4865730;29;46307;-50
2021/06/30 05:43:37;;;;;;;;;10.00;8.25;;;;;17.95;63.85;100977.00;4866862;29;45264;-49
2021/06/30 05:46:04;;;;;;;;;13.75;12.50;;;;;17.96;64.14;100981.41;4867207;29;45298;-51
2021/06/30 05:48:30;;;;;;;;;6.75;6.00;;;;;17.96;64.07;100977.84;4866834;29;45316;-53
2021/06/30 05:50:55;;;;;;;;;7.50;6.25;;;;;17.95;63.91;100979.66;4866935;29;45154;-51
2021/06/30 05:53:21;;;;;;;;;6.00;6.00;;;;;17.95;63.81;100978.78;4866616;29;45321;-48
2021/06/30 05:55:46;;;;;;;;;8.25;7.00;;;;;17.95;64.13;100984.09;4866915;29;45164;-50
2021/06/30 05:58:11;;;;;;;;;6.25;6.00;;;;;17.91;64.22;100982.47;4866674;29;45227;-51
2021/06/30 06:00:37;;;;;;;;;7.75;6.75;;;;;17.93;63.93;100983.28;4866274;29;45251;-51
2021/06/30 06:03:02;;;;;;;;;7.25;7.25;;;;;17.94;63.94;100980.59;4871278;29;45376;-51
2021/06/30 06:05:28;;;;;;;;;12.00;6.25;;;;;17.94;64.12;100990.38;4865670;29;45263;-52
2021/06/30 06:07:53;;;;;;;;;6.50;6.50;;;;;17.94;64.06;100988.56;4866591;29;45353;-50
2021/06/30 06:10:18;;;;;;;;;7.50;7.50;;;;;17.91;63.83;100986.00;4866476;29;45374;-52
2021/06/30 06:12:44;;;;;;;;;7.25;6.00;;;;;17.94;63.94;100998.34;4866339;29;45390;-51
2021/06/30 06:15:11;;;;;;;;;10.50;7.00;;;;;17.94;64.07;101003.66;4866657;29;45318;-51
2021/06/30 06:17:38;;;;;;;;;11.75;6.00;;;;;17.90;64.10;100994.91;4866459;29;45368;-48
2021/06/30 06:20:08;;;;;;;;;5.75;5.75;;;;;17.90;64.18;101004.66;4866216;29;45365;-51
2021/06/30 06:22:33;;;;;;;;;7.25;6.25;;;;;17.87;64.59;101010.97;4865992;29;45340;-49
2021/06/30 06:24:58;;;;;;;;;5.00;5.00;;;;;17.85;64.29;101011.03;4866492;29;45531;-52
2021/06/30 06:27:32;;;;;;;;;5.50;5.50;;;;;17.82;64.23;101019.16;4866129;29;45386;-55
2021/06/30 06:29:57;;;;;;;;;5.00;5.00;;;;;17.83;64.24;101014.69;4864864;29;46634;-52
2021/06/30 06:32:23;;;;;;;;;6.00;6.00;;;;;17.82;63.97;101015.59;4866101;29;45409;-50
2021/06/30 06:34:49;;;;;;;;;14.50;12.00;;;;;17.79;64.25;101016.59;4866396;29;45240;-51
2021/06/30 06:37:15;;;;;;;;;8.50;7.00;;;;;17.77;64.29;101009.63;4865870;29;45388;-53
2021/06/30 06:39:43;;;;;;;;;7.00;7.00;;;;;17.75;64.01;101022.09;4865996;29;46204;-55
2021/06/30 06:42:11;;;;;;;;;10.75;9.25;;;;;17.77;64.33;101022.91;4864581;29;45211;-49
2021/06/30 06:44:41;;;;;;;;;6.25;5.25;;;;;17.75;64.45;101030.06;4866125;29;45229;-53
2021/06/30 06:47:07;;;;;;;;;9.75;9.00;;;;;17.75;64.35;101030.94;4864696;29;45390;-52
2021/06/30 06:49:32;;;;;;;;;9.25;5.25;;;;;17.75;64.17;101027.41;4865871;29;47225;-55
2021/06/30 06:51:59;;;;;;;;;7.50;6.75;;;;;17.75;64.38;101028.28;4865632;29;45334;-58
2021/06/30 06:54:25;;;;;;;;;5.25;5.25;;;;;17.76;64.21;101035.34;4880551;29;45428;-59
2021/06/30 06:56:50;;;;;;;;;8.25;8.25;;;;;17.75;64.04;101033.59;4865588;29;45217;-59
2021/06/30 06:59:16;;;;;;;;;10.50;6.75;;;;;17.76;64.17;101035.34;4865896;29;45307;-59
2021/06/30 07:01:41;;;;;;;;;8.50;7.00;;;;;17.75;64.14;101030.94;4864502;29;45187;-58
2021/06/30 07:04:07;;;;;;;;;7.00;5.75;;;;;17.77;64.07;101031.72;4871408;29;45302;-57
2021/06/30 07:06:32;;;;;;;;;9.50;6.25;;;;;17.78;64.08;101030.81;4865587;29;45536;-58
2021/06/30 07:08:58;;;;;;;;;8.50;7.00;;;;;17.77;64.05;101025.56;4865707;29;45542;-57
2021/06/30 07:11:24;;;;;;;;;7.00;5.75;;;;;17.81;64.05;101033.38;4853920;29;45718;-58
2021/06/30 07:13:49;;;;;;;;;7.50;7.00;;;;;17.81;63.78;101033.38;4864416;29;45511;-57
2021/06/30 07:16:14;;;;;;;;;4.50;4.50;;;;;17.84;64.10;101035.03;4877930;29;45540;-57
2021/06/30 07:18:40;;;;;;;;;9.25;6.25;;;;;17.80;64.01;101026.31;4856614;29;45437;-57
2021/06/30 07:21:08;;;;;;;;;10.00;8.75;;;;;17.85;64.06;101042.94;4864869;29;45371;-56
2021/06/30 07:23:34;;;;;;;;;6.50;6.00;;;;;17.84;64.14;101038.53;4860971;29;45427;-57
2021/06/30 07:25:59;;;;;;;;;6.00;6.00;;;;;17.90;64.03;101041.88;4863505;29;45543;-58
2021/06/30 07:28:25;;;;;;;;;9.25;7.00;;;;;17.91;64.12;101043.63;4860358;29;45257;-58
2021/06/30 07:30:51;;;;;;;;;8.75;8.75;;;;;17.92;64.01;101045.34;4860217;29;45388;-58
2021/06/30 07:33:17;;;;;;;;;9.00;7.25;;;;;17.93;64.08;101050.59;4864044;29;45346;-57
2021/06/30 07:35:42;;;;;;;;;6.25;6.25;;;;;17.96;64.02;101049.66;4860237;29;45567;-57
2021/06/30 07:38:09;;;;;;;;;8.00;8.00;;;;;18.00;63.82;101048.63;4864912;29;45296;-57
2021/06/30 07:40:35;;;;;;;;;15.25;13.00;;;;;18.01;64.11;101051.22;4860052;29;45384;-58
2021/06/30 07:43:00;;;;;;;;;9.00;9.00;;;;;18.03;63.90;101051.13;4859996;29;45458;-57
2021/06/30 07:45:27;;;;;;;;;11.75;11.75;;;;;18.08;64.18;101054.47;4862347;29;45349;-56
2021/06/30 07:47:52;;;;;;;;;11.50;8.25;;;;;18.11;64.00;101058.78;4859862;29;46107;-56
2021/06/30 07:50:19;;;;;;;;;11.50;11.50;;;;;18.13;64.23;101057.81;4864793;29;45466;-57
2021/06/30 07:52:48;;;;;;;;;7.25;7.00;;;;;18.13;63.96;101055.16;4864860;29;45300;-58
2021/06/30 07:55:13;;;;;;;;;8.00;6.00;;;;;18.16;64.04;101054.16;4864440;29;45475;-60
2021/06/30 07:57:39;;;;;;;;;10.50;7.75;;;;;18.23;63.77;101066.28;4859811;29;45486;-57
2021/06/30 08:00:06;;;;;;;;;9.50;8.50;;;;;18.26;64.07;101070.59;4860109;29;45257;-57
2021/06/30 08:02:33;;;;;;;;;8.25;7.75;;;;;18.28;63.67;101052.81;4864827;29;45329;-59
2021/06/30 08:04:59;;;;;;;;;11.75;9.50;;;;;18.30;64.00;101062.44;4863217;29;45391;-56
2021/06/30 08:07:24;;;;;;;;;11.00;9.25;;;;;18.34;63.93;101058.72;4864420;29;46184;-54
2021/06/30 08:09:50;;;;;;;;;8.75;6.25;;;;;18.39;63.97;101055.00;4871043;29;45372;-55
2021/06/30 08:12:15;;;;;;;;;9.25;9.25;;;;;18.42;64.08;101053.06;4871002;29;45881;-52
2021/06/30 08:14:41;;;;;;;;;9.00;8.00;;;;;18.45;63.73;101057.41;4864515;29;45451;-50
2021/06/30 08:17:06;;;;;;;;;11.00;9.25;;;;;18.45;63.98;101052.06;4864681;29;46136;-56
2021/06/30 08:19:32;;;;;;;;;10.75;10.75;;;;;18.49;63.88;101051.03;4860860;29;45439;-51
2021/06/30 08:21:57;;;;;;;;;10.75;9.25;;;;;18.52;63.89;101057.06;4863207;29;45423;-53
2021/06/30 08:24:23;;;;;;;;;12.25;8.00;;;;;18.55;63.80;101056.06;4863099;29;45340;-52
2021/06/30 08:26:48;;;;;;;;;8.75;8.75;;;;;18.58;63.82;101055.97;4866023;29;46232;-53
2021/06/30 08:29:13;;;;;;;;;11.75;9.00;;;;;18.60;63.21;101058.53;4866337;29;45362;-54
2021/06/30 08:31:39;;;;;;;;;6.00;6.00;;;;;18.60;63.56;101050.56;4867333;29;45329;-55
2021/06/30 08:34:05;;;;;;;;;10.00;10.00;;;;;18.64;63.55;101054.81;4867442;29;45248;-55
2021/06/30 08:36:30;;;;;;;;;10.75;10.50;;;;;18.66;63.47;101052.97;4870320;29;45342;-55
2021/06/30 08:38:56;;;;;;;;;14.75;12.00;;;;;18.71;63.25;101064.28;4867449;29;45428;-54
2021/06/30 08:41:22;;;;;;;;;8.25;7.25;;;;;18.75;63.20;101057.03;4867227;29;45354;-53
2021/06/30 08:43:48;;;;;;;;;10.50;9.75;;;;;18.78;63.04;101059.53;4866381;29;45429;-55
2021/06/30 08:46:21;;;;;;;;;15.25;14.00;;;;;18.79;63.05;101054.16;4867214;29;46086;-58
2021/06/30 08:48:49;;;;;;;;;13.00;11.50;;;;;18.83;63.27;101062.88;4867170;29;45438;-58
2021/06/30 08:51:20;;;;;;;;;15.50;12.00;;;;;18.85;63.57;101058.34;4867542;29;45359;-58
2021/06/30 08:53:47;;;;;;;;;12.25;9.50;;;;;18.85;63.03;101058.34;4867289;29;45343;-57
2021/06/30 08:56:13;;;;;;;;;10.00;10.00;;;;;18.88;62.91;101052.91;4867343;29;45435;-56
2021/06/30 08:58:39;;;;;;;;;11.75;11.75;;;;;18.91;63.17;101054.59;4881568;29;45420;-59
2021/06/30 09:01:05;;;;;;;;;13.50;8.75;;;;;18.93;63.17;101055.38;4864334;29;45240;-55
2021/06/30 09:03:31;;;;;;;;;11.75;9.75;;;;;18.95;63.17;101056.19;4863840;29;45514;-57
2021/06/30 09:08:22;;;;;;;;;13.00;11.75;;;;;18.96;63.52;101057.91;4864021;29;45357;-53
2021/06/30 09:10:48;;;;;;;;;14.25;14.25;;;;;18.99;62.97;101050.66;4864314;29;45409;-55
2021/06/30 09:13:25;;;;;;;;;14.50;11.50;;;;;19.05;62.91;101056.63;4866527;29;45482;-56
2021/06/30 09:16:00;;;;;;;;;11.50;10.50;;;;;19.06;62.84;101050.38;4864073;29;45381;-50
2021/06/30 09:21:21;;;;;;;;;15.00;12.50;;;;;19.07;62.61;101050.31;4862561;29;45272;-52
2021/06/30 09:24:20;;;;;;;;;14.50;12.25;;;;;19.10;62.70;101058.16;4855371;29;45416;-53
2021/06/30 09:26:54;;;;;;;;;14.50;14.00;;;;;19.11;62.39;101059.03;4866033;29;46885;-55
2021/06/30 09:29:22;;;;;;;;;13.50;11.75;;;;;19.13;62.71;101059.81;4866330;29;45524;-53
2021/06/30 09:31:51;;;;;;;;;12.50;12.50;;;;;19.17;62.86;101064.09;4879225;29;45354;-50
2021/06/30 09:34:27;;;;;;;;;13.00;11.25;;;;;19.20;62.42;101061.28;4862314;29;45335;-49
2021/06/30 09:37:02;;;;;;;;;12.25;11.50;;;;;19.23;62.71;101069.13;4865113;29;47466;-54
2021/06/30 09:39:29;;;;;;;;;12.25;11.50;;;;;19.28;62.38;101066.25;4864506;29;45457;-58
2021/06/30 09:42:13;;;;;;;;;11.25;11.00;;;;;19.30;62.47;101069.72;4863238;29;45265;-54
2021/06/30 09:44:40;;;;;;;;;13.50;12.75;;;;;19.34;62.11;101065.97;4865549;29;45597;-56
2021/06/30 09:47:07;;;;;;;;;12.50;12.00;;;;;19.38;62.64;101072.03;4863100;29;45241;-54
2021/06/30 09:49:35;;;;;;;;;14.00;14.00;;;;;19.42;62.10;101071.81;4863319;29;45231;-54
2021/06/30 09:52:07;;;;;;;;;12.00;10.00;;;;;19.46;62.22;101073.41;4860186;29;45480;-49
2021/06/30 09:54:33;;;;;;;;;11.00;11.00;;;;;19.52;62.09;101071.38;4863553;29;45345;-50
2021/06/30 09:57:03;;;;;;;;;13.25;11.25;;;;;19.57;61.65;101074.69;4862547;29;46285;-53
2021/06/30 09:59:37;;;;;;;;;12.75;11.50;;;;;19.58;62.15;101069.28;4863105;29;45327;-53
2021/06/30 10:02:02;;;;;;;;;12.75;12.25;;;;;19.61;61.68;101071.81;4867138;29;45960;-54
2021/06/30 10:04:32;;;;;;;;;14.75;14.00;;;;;19.64;61.94;101078.81;4866439;29;45410;-52
2021/06/30 10:07:08;;;;;;;;;13.00;9.25;;;;;19.67;61.43;101078.66;4871747;29;46159;-53
2021/06/30 10:09:34;;;;;;;;;10.00;10.00;;;;;19.68;61.45;101083.06;4866079;29;45406;-51
2021/06/30 10:12:11;;;;;;;;;11.00;10.00;;;;;19.71;61.89;101087.38;4866193;29;45325;-52
2021/06/30 10:14:38;;;;;;;;;10.50;8.75;;;;;19.74;61.74;101089.91;4866169;29;45333;-54
2021/06/30 10:17:04;;;;;;;;;11.50;9.50;;;;;19.76;61.32;101083.56;4868224;29;45557;-54
2021/06/30 10:19:30;;;;;;;;;10.25;9.50;;;;;19.77;61.70;101093.31;4862254;29;45454;-55
2021/06/30 10:21:57;;;;;;;;;12.50;11.25;;;;;19.78;61.23;101089.66;4865944;29;45317;-56
2021/06/30 10:24:23;;;;;;;;;24.00;21.25;;;;;19.79;61.64;101087.88;4864403;29;45457;-53
2021/06/30 10:26:49;;;;;;;;;16.25;13.50;;;;;19.83;61.41;101089.50;4865647;29;45453;-55
2021/06/30 10:29:16;;;;;;;;;78.33;68.33;;;;;19.84;61.28;101091.22;4868326;29;45264;-54
2021/06/30 10:31:43;;;;;;;;;107.67;101.67;;;;;19.86;61.30;101084.03;4866278;29;45431;-53
2021/06/30 10:34:11;;;;;;;;;12.50;12.50;;;;;19.88;61.08;101087.47;4865693;29;45322;-55
2021/06/30 10:36:43;;;;;;;;;14.00;13.75;;;;;19.91;61.42;101078.47;4864140;29;45688;-54
2021/06/30 10:39:09;;;;;;;;;14.25;12.75;;;;;19.96;60.79;101087.09;4863338;29;45506;-54
2021/06/30 10:41:44;;;;;;;;;10.50;10.50;;;;;20.00;61.19;101087.81;4864150;29;45313;-55
2021/06/30 10:44:23;;;;;;;;;14.50;11.25;;;;;20.04;61.09;101086.75;4866035;29;45541;-54
2021/06/30 10:46:49;;;;;;;;;8.25;8.25;;;;;20.06;60.77;101083.06;4864498;29;47063;-57
2021/06/30 10:49:22;;;;;;;;;10.75;9.75;;;;;20.12;60.46;101085.44;4865583;29;45555;-51
2021/06/30 10:51:55;;;;;;;;;12.25;10.00;;;;;20.17;60.90;101081.69;4866751;29;45340;-59
2021/06/30 10:54:41;;;;;;;;;55.25;46.25;;;;;20.25;60.67;101085.69;4865453;29;45284;-58
2021/06/30 10:57:18;;;;;;;;;66.25;54.00;;;;;20.33;60.28;101087.13;4865503;29;45496;-56
2021/06/30 11:00:02;;;;;;;;;11.00;9.50;;;;;20.36;59.91;101079.81;4869617;29;45501;-57
2021/06/30 11:02:31;;;;;;;;;12.75;9.25;;;;;20.42;60.24;101086.66;4868651;29;45409;-56
2021/06/30 11:05:16;;;;;;;;;13.25;12.00;;;;;20.44;59.65;101077.63;4860738;29;45460;-56
2021/06/30 11:07:42;;;;;;;;;12.00;9.50;;;;;20.46;60.36;101083.78;4871435;29;68609;-54
2021/06/30 11:10:16;;;;;;;;;9.25;9.25;;;;;20.51;59.92;101085.34;4866926;29;45438;-58
2021/06/30 11:12:51;;;;;;;;;12.75;11.50;;;;;20.54;59.33;101090.50;4868187;29;45603;-55
2021/06/30 11:15:37;;;;;;;;;13.25;11.50;;;;;20.54;59.60;101096.72;4879898;29;45268;-53
2021/06/30 11:18:04;;;;;;;;;10.50;10.50;;;;;20.52;59.45;101092.41;4860594;29;48297;-53
2021/06/30 11:20:51;;;;;;;;;10.75;10.75;;;;;20.51;59.28;101096.84;4865446;29;45343;-55